createdAt,value
2023-05-02T00:00:13.520Z,21.59
2023-05-02T00:01:13.576Z,26.17
2023-05-02T00:02:13.640Z,25.84
2023-05-02T00:03:13.812Z,27.63
2023-05-02T00:04:13.849Z,26.60
2023-05-02T00:05:13.768Z,24.67
2023-05-02T00:06:13.866Z,29.70
2023-05-02T00:07:13.886Z,31.96
2023-05-02T00:08:13.890Z,31.90
2023-05-02T00:09:13.977Z,28.23
2023-05-02T00:10:14.129Z,30.11
2023-05-02T00:11:14.060Z,27.24
2023-05-02T00:12:14.108Z,26.20
2023-05-02T00:13:14.165Z,28.95
2023-05-02T00:14:14.240Z,41.10
2023-05-02T00:15:14.302Z,51.01
2023-05-02T00:16:14.353Z,39.44
2023-05-02T00:17:14.464Z,36.27
2023-05-02T00:18:14.469Z,32.60
2023-05-02T00:19:14.413Z,31.97
2023-05-02T00:20:14.423Z,28.67
2023-05-02T00:21:14.434Z,23.32
2023-05-02T00:22:14.479Z,18.97
2023-05-02T00:23:14.524Z,17.29
2023-05-02T00:24:14.555Z,17.64
2023-05-02T00:25:14.555Z,20.89
2023-05-02T00:26:14.632Z,20.79
2023-05-02T00:27:14.647Z,19.09
2023-05-02T00:28:14.683Z,19.38
2023-05-02T00:29:14.803Z,20.04
2023-05-02T00:30:14.862Z,24.42
2023-05-02T00:31:14.945Z,28.29
2023-05-02T00:32:14.941Z,33.80
2023-05-02T00:33:15.201Z,30.20
2023-05-02T00:34:15.114Z,23.07
2023-05-02T00:35:15.119Z,21.30
2023-05-02T00:36:15.158Z,23.14
2023-05-02T00:37:15.208Z,24.63
2023-05-02T00:38:15.213Z,28.04
2023-05-02T00:39:15.237Z,31.28
2023-05-02T00:40:15.170Z,34.07
2023-05-02T00:41:15.209Z,33.78
2023-05-02T00:42:15.197Z,35.95
2023-05-02T00:43:15.211Z,32.42
2023-05-02T00:44:15.253Z,34.29
2023-05-02T00:45:15.258Z,38.87
2023-05-02T00:46:15.388Z,38.31
2023-05-02T00:47:15.336Z,42.24
2023-05-02T00:48:15.459Z,49.20
2023-05-02T00:49:15.444Z,51.29
2023-05-02T00:50:15.488Z,36.40
2023-05-02T00:51:15.557Z,31.40
2023-05-02T00:52:15.619Z,29.11
2023-05-02T00:53:15.693Z,28.87
2023-05-02T00:54:15.814Z,29.68
2023-05-02T00:55:15.795Z,28.82
2023-05-02T00:56:15.844Z,33.28
2023-05-02T00:57:15.902Z,39.61
2023-05-02T00:58:15.973Z,39.88
2023-05-02T00:59:16.081Z,36.74
2023-05-02T01:00:16.089Z,30.22
2023-05-02T01:01:16.170Z,35.20
2023-05-02T01:02:16.230Z,42.16
2023-05-02T01:03:16.283Z,51.55
2023-05-02T01:04:16.297Z,52.14
2023-05-02T01:05:16.209Z,53.68
2023-05-02T01:06:16.265Z,52.56
2023-05-02T01:07:16.319Z,57.79
2023-05-02T01:08:16.361Z,50.40
2023-05-02T01:09:16.387Z,42.24
2023-05-02T01:10:16.447Z,45.82
2023-05-02T01:11:16.509Z,47.12
2023-05-02T01:12:16.534Z,51.20
2023-05-02T01:13:16.766Z,54.14
2023-05-02T01:14:16.718Z,44.62
2023-05-02T01:15:16.707Z,33.72
2023-05-02T01:16:16.817Z,30.22
2023-05-02T01:17:16.822Z,29.75
2023-05-02T01:18:16.891Z,26.82
2023-05-02T01:19:16.929Z,21.99
2023-05-02T01:20:16.942Z,23.75
2023-05-02T01:21:16.972Z,26.31
2023-05-02T01:22:16.976Z,29.34
2023-05-02T01:23:17.070Z,26.72
2023-05-02T01:24:17.163Z,25.67
2023-05-02T01:25:17.196Z,22.46
2023-05-02T01:26:17.261Z,22.17
2023-05-02T01:27:17.301Z,23.75
2023-05-02T01:28:17.352Z,24.83
2023-05-02T01:29:17.455Z,28.93
2023-05-02T01:30:17.452Z,32.10
2023-05-02T01:31:17.491Z,39.58
2023-05-02T01:32:17.476Z,46.21
2023-05-02T01:33:17.462Z,42.68
2023-05-02T01:34:17.476Z,40.42
2023-05-02T01:35:17.481Z,38.30
2023-05-02T01:36:17.485Z,33.99
2023-05-02T01:37:17.506Z,32.91
2023-05-02T01:38:17.561Z,29.62
2023-05-02T01:39:17.575Z,24.91
2023-05-02T01:40:17.568Z,23.82
2023-05-02T01:41:17.586Z,29.14
2023-05-02T01:42:17.638Z,36.94
2023-05-02T01:43:17.699Z,34.29
2023-05-02T01:44:17.698Z,35.54
2023-05-02T01:45:17.759Z,30.46
2023-05-02T01:46:17.879Z,30.61
2023-05-02T01:47:17.914Z,32.69
2023-05-02T01:48:17.893Z,33.19
2023-05-02T01:49:17.880Z,36.55
2023-05-02T01:50:17.910Z,40.98
2023-05-02T01:51:17.905Z,40.02
2023-05-02T01:52:17.963Z,45.66
2023-05-02T01:53:17.974Z,38.10
2023-05-02T01:54:18.063Z,32.09
2023-05-02T01:55:18.007Z,31.93
2023-05-02T01:56:18.013Z,29.44
2023-05-02T01:57:17.994Z,32.99
2023-05-02T01:58:17.983Z,34.22
2023-05-02T01:59:17.960Z,37.54
2023-05-02T02:00:17.964Z,43.16
2023-05-02T02:01:17.996Z,39.89
2023-05-02T02:02:17.965Z,38.45
2023-05-02T02:03:18.056Z,42.18
2023-05-02T02:04:18.171Z,45.13
2023-05-02T02:05:17.961Z,40.97
2023-05-02T02:06:18.001Z,31.66
2023-05-02T02:07:17.995Z,31.57
2023-05-02T02:08:18.022Z,33.88
2023-05-02T02:09:18.026Z,28.59
2023-05-02T02:10:18.047Z,23.28
2023-05-02T02:11:17.989Z,19.52
2023-05-02T02:12:17.990Z,19.70
2023-05-02T02:13:18.020Z,17.82
2023-05-02T02:14:18.004Z,13.21
2023-05-02T02:15:18.323Z,11.75
2023-05-02T02:16:18.046Z,12.52
2023-05-02T02:17:17.995Z,11.46
2023-05-02T02:18:17.983Z,12.23
2023-05-02T02:19:17.986Z,14.49
2023-05-02T02:20:17.997Z,17.73
2023-05-02T02:21:18.015Z,17.38
2023-05-02T02:22:18.001Z,19.09
2023-05-02T02:23:18.006Z,19.35
2023-05-02T02:24:18.007Z,20.13
2023-05-02T02:25:18.033Z,24.47
2023-05-02T02:26:18.046Z,23.78
2023-05-02T02:27:18.039Z,26.40
2023-05-02T02:28:18.050Z,30.61
2023-05-02T02:29:18.100Z,37.30
2023-05-02T02:30:18.074Z,46.36
2023-05-02T02:31:18.105Z,58.95
2023-05-02T02:32:18.128Z,66.58
2023-05-02T02:33:18.083Z,71.32
2023-05-02T02:34:18.186Z,71.78
2023-05-02T02:35:18.154Z,61.69
2023-05-02T02:36:18.196Z,55.37
2023-05-02T02:37:18.225Z,46.47
2023-05-02T02:38:18.196Z,50.39
2023-05-02T02:39:18.194Z,54.76
2023-05-02T02:40:18.174Z,50.87
2023-05-02T02:41:18.218Z,48.86
2023-05-02T02:42:18.211Z,47.58
2023-05-02T02:43:18.153Z,47.05
2023-05-02T02:44:18.243Z,49.74
2023-05-02T02:45:18.198Z,51.38
2023-05-02T02:46:18.214Z,51.93
2023-05-02T02:47:18.203Z,56.83
2023-05-02T02:48:18.295Z,54.53
2023-05-02T02:49:18.225Z,57.90
2023-05-02T02:50:18.213Z,58.38
2023-05-02T02:51:18.287Z,54.01
2023-05-02T02:52:18.260Z,54.31
2023-05-02T02:53:18.232Z,52.43
2023-05-02T02:54:26.454Z,63.92
2023-05-02T02:55:19.262Z,64.18
2023-05-02T02:56:18.236Z,65.04
2023-05-02T02:57:18.278Z,65.66
2023-05-02T02:58:18.239Z,56.13
2023-05-02T02:59:18.226Z,49.29
2023-05-02T03:00:18.212Z,44.38
2023-05-02T03:01:18.267Z,50.71
2023-05-02T03:02:18.178Z,51.52
2023-05-02T03:03:18.270Z,57.02
2023-05-02T03:04:18.255Z,62.25
2023-05-02T03:05:18.202Z,62.82
2023-05-02T03:06:18.186Z,61.96
2023-05-02T03:07:18.158Z,67.00
2023-05-02T03:08:18.189Z,60.86
2023-05-02T03:09:18.167Z,53.68
2023-05-02T03:10:18.128Z,57.76
2023-05-02T03:11:18.129Z,54.54
2023-05-02T03:12:18.136Z,50.27
2023-05-02T03:13:18.114Z,44.04
2023-05-02T03:14:18.125Z,41.17
2023-05-02T03:15:18.164Z,45.08
2023-05-02T03:16:18.241Z,48.28
2023-05-02T03:17:18.189Z,50.64
2023-05-02T03:18:18.298Z,49.77
2023-05-02T03:19:18.265Z,45.45
2023-05-02T03:20:18.271Z,42.75
2023-05-02T03:21:18.259Z,36.06
2023-05-02T03:22:18.268Z,28.08
2023-05-02T03:23:18.289Z,27.08
2023-05-02T03:24:19.198Z,25.11
2023-05-02T03:25:18.291Z,24.68
2023-05-02T03:26:18.340Z,23.71
2023-05-02T03:27:18.364Z,22.67
2023-05-02T03:28:18.356Z,19.79
2023-05-02T03:29:18.419Z,18.73
2023-05-02T03:30:18.381Z,18.11
2023-05-02T03:31:18.455Z,16.28
2023-05-02T03:32:18.448Z,14.45
2023-05-02T03:33:18.443Z,13.97
2023-05-02T03:34:18.452Z,14.05
2023-05-02T03:35:18.519Z,14.07
2023-05-02T03:36:18.496Z,12.40
2023-05-02T03:37:18.518Z,11.49
2023-05-02T03:38:18.516Z,10.11
2023-05-02T03:39:18.546Z,9.86
2023-05-02T03:40:18.532Z,11.09
2023-05-02T03:41:18.599Z,10.96
2023-05-02T03:42:18.588Z,12.98
2023-05-02T03:43:18.626Z,15.99
2023-05-02T03:44:18.653Z,16.14
2023-05-02T03:45:18.714Z,15.89
2023-05-02T03:46:18.689Z,13.82
2023-05-02T03:47:18.686Z,12.71
2023-05-02T03:48:18.764Z,11.57
2023-05-02T03:49:18.802Z,11.86
2023-05-02T03:50:18.751Z,12.57
2023-05-02T03:51:18.815Z,13.58
2023-05-02T03:52:18.861Z,15.12
2023-05-02T03:53:18.924Z,14.29
2023-05-02T03:54:18.932Z,15.01
2023-05-02T03:55:18.952Z,14.99
2023-05-02T03:56:19.031Z,15.75
2023-05-02T03:57:19.063Z,14.24
2023-05-02T03:58:19.035Z,13.78
2023-05-02T03:59:19.151Z,15.20
2023-05-02T04:00:19.125Z,21.15
2023-05-02T04:01:19.172Z,26.35
2023-05-02T04:02:19.269Z,25.19
2023-05-02T04:03:19.669Z,23.95
2023-05-02T04:04:19.431Z,21.08
2023-05-02T04:05:19.324Z,19.36
2023-05-02T04:06:19.446Z,21.54
2023-05-02T04:07:19.615Z,23.91
2023-05-02T04:08:19.470Z,26.08
2023-05-02T04:09:19.492Z,30.47
2023-05-02T04:10:19.547Z,34.46
2023-05-02T04:11:19.643Z,34.52
2023-05-02T04:12:19.631Z,44.77
2023-05-02T04:13:19.672Z,47.57
2023-05-02T04:14:19.726Z,39.96
2023-05-02T04:15:19.822Z,28.60
2023-05-02T04:16:19.895Z,18.56
2023-05-02T04:17:19.863Z,18.30
2023-05-02T04:18:19.869Z,17.28
2023-05-02T04:19:19.937Z,17.63
2023-05-02T04:20:19.964Z,19.12
2023-05-02T04:21:19.985Z,17.73
2023-05-02T04:22:20.014Z,22.40
2023-05-02T04:23:20.069Z,28.77
2023-05-02T04:24:20.128Z,30.31
2023-05-02T04:25:20.118Z,28.48
2023-05-02T04:26:20.228Z,25.48
2023-05-02T04:27:20.177Z,28.83
2023-05-02T04:28:20.242Z,24.03
2023-05-02T04:29:20.292Z,28.39
2023-05-02T04:30:20.364Z,36.30
2023-05-02T04:31:20.537Z,42.74
2023-05-02T04:32:20.418Z,42.20
2023-05-02T04:33:20.486Z,48.78
2023-05-02T04:34:20.475Z,64.94
2023-05-02T04:35:20.555Z,59.61
2023-05-02T04:36:20.577Z,56.05
2023-05-02T04:37:21.193Z,29.13
2023-05-02T04:38:20.636Z,18.24
2023-05-02T04:39:20.658Z,20.64
2023-05-02T04:40:20.708Z,25.58
2023-05-02T04:41:20.719Z,27.70
2023-05-02T04:42:20.778Z,27.58
2023-05-02T04:43:21.830Z,31.76
2023-05-02T04:44:20.824Z,21.24
2023-05-02T04:45:20.848Z,22.02
2023-05-02T04:46:21.150Z,19.46
2023-05-02T04:47:20.815Z,15.44
2023-05-02T04:48:20.761Z,15.87
2023-05-02T04:49:20.787Z,16.88
2023-05-02T04:50:20.804Z,16.39
2023-05-02T04:51:20.771Z,13.76
2023-05-02T04:52:20.778Z,13.55
2023-05-02T04:53:20.739Z,9.62
2023-05-02T04:54:20.926Z,7.44
2023-05-02T04:55:20.838Z,8.33
2023-05-02T04:56:20.737Z,8.07
2023-05-02T04:57:22.612Z,10.31
2023-05-02T04:58:20.869Z,10.40
2023-05-02T04:59:20.821Z,10.87
2023-05-02T05:01:47.934Z,0.50
2023-05-02T05:02:40.393Z,0.50
2023-05-02T05:03:40.417Z,0.50
2023-05-02T05:04:40.281Z,0.50
2023-05-02T05:05:40.350Z,0.50
2023-05-02T05:06:40.295Z,0.50
2023-05-02T05:07:40.263Z,0.51
2023-05-02T05:08:40.206Z,0.57
2023-05-02T05:09:40.282Z,0.56
2023-05-02T05:10:40.191Z,0.51
2023-05-02T05:11:40.534Z,0.58
2023-05-02T05:12:40.222Z,0.51
2023-05-02T05:13:40.202Z,0.58
2023-05-02T05:14:40.283Z,0.47
2023-05-02T05:15:40.198Z,0.51
2023-05-02T05:16:40.604Z,0.58
2023-05-02T05:17:40.624Z,0.62
2023-05-02T05:18:40.273Z,0.69
2023-05-02T05:19:40.244Z,1.02
2023-05-02T05:20:40.140Z,1.21
2023-05-02T05:21:40.160Z,1.16
2023-05-02T05:22:40.158Z,1.09
2023-05-02T05:23:40.347Z,1.17
2023-05-02T05:24:40.169Z,1.32
2023-05-02T05:25:40.149Z,1.54
2023-05-02T05:26:40.123Z,1.46
2023-05-02T05:27:40.112Z,1.52
2023-05-02T05:28:40.165Z,1.50
2023-05-02T05:29:40.172Z,1.42
2023-05-02T05:30:40.475Z,1.69
2023-05-02T05:31:40.441Z,3.10
2023-05-02T05:32:40.080Z,5.39
2023-05-02T05:33:40.155Z,8.49
2023-05-02T05:34:40.072Z,10.70
2023-05-02T05:35:40.167Z,13.19
2023-05-02T05:36:40.206Z,17.52
2023-05-02T05:37:40.294Z,21.53
2023-05-02T05:38:40.264Z,27.77
2023-05-02T05:39:40.534Z,33.33
2023-05-02T05:40:40.387Z,27.68
2023-05-02T05:41:40.328Z,12.40
2023-05-02T05:42:40.419Z,7.15
2023-05-02T05:43:40.410Z,5.99
2023-05-02T05:44:40.581Z,6.78
2023-05-02T05:45:40.524Z,7.81
2023-05-02T05:48:00.428Z,0.50
2023-05-02T05:49:00.205Z,0.50
2023-05-02T05:50:00.463Z,0.50
2023-05-02T05:51:00.172Z,0.50
2023-05-02T05:52:00.261Z,0.50
2023-05-02T05:53:00.164Z,0.39
2023-05-02T05:54:00.213Z,0.40
2023-05-02T05:55:00.155Z,0.50
2023-05-02T05:56:00.118Z,0.59
2023-05-02T05:57:00.137Z,0.69
2023-05-02T05:58:00.183Z,0.73
2023-05-02T05:59:00.099Z,0.69
2023-05-02T06:00:01.943Z,0.77
2023-05-02T06:01:00.109Z,0.93
2023-05-02T06:02:00.298Z,1.14
2023-05-02T06:03:00.305Z,1.27
2023-05-02T06:04:00.246Z,0.98
2023-05-02T06:05:00.332Z,0.78
2023-05-02T06:06:00.443Z,0.71
2023-05-02T06:07:00.338Z,0.63
2023-05-02T06:08:00.349Z,0.63
2023-05-02T06:09:00.409Z,0.49
2023-05-02T06:10:00.699Z,0.51
2023-05-02T06:11:00.556Z,0.57
2023-05-02T06:12:00.493Z,0.65
2023-05-02T06:13:00.538Z,0.83
2023-05-02T06:14:00.584Z,1.06
2023-05-02T06:15:00.736Z,1.39
2023-05-02T06:16:00.696Z,1.64
2023-05-02T06:17:00.756Z,1.87
2023-05-02T06:18:00.849Z,1.84
2023-05-02T06:19:00.778Z,1.39
2023-05-02T06:20:01.673Z,1.08
2023-05-02T06:21:00.865Z,0.96
2023-05-02T06:22:01.805Z,0.95
2023-05-02T06:23:00.976Z,1.03
2023-05-02T06:24:00.944Z,0.92
2023-05-02T06:25:01.010Z,0.69
2023-05-02T06:26:01.012Z,0.58
2023-05-02T06:27:01.108Z,0.50
2023-05-02T06:28:01.113Z,0.54
2023-05-02T06:29:01.120Z,0.52
2023-05-02T06:30:01.449Z,0.50
2023-05-02T06:31:01.387Z,0.50
2023-05-02T06:32:01.350Z,0.53
2023-05-02T06:33:01.334Z,0.58
2023-05-02T06:34:01.374Z,0.45
2023-05-02T06:35:01.407Z,0.45
2023-05-02T06:36:02.486Z,0.51
2023-05-02T06:37:01.498Z,0.52
2023-05-02T06:38:01.483Z,0.57
2023-05-02T06:39:02.127Z,0.64
2023-05-02T06:40:01.862Z,0.60
2023-05-02T06:41:01.527Z,0.64
2023-05-02T06:42:01.637Z,0.70
2023-05-02T06:43:01.595Z,0.65
2023-05-02T06:44:01.662Z,0.85
2023-05-02T06:45:01.844Z,0.93
2023-05-02T06:46:01.675Z,0.88
2023-05-02T06:47:01.890Z,0.91
2023-05-02T06:48:01.781Z,0.83
2023-05-02T06:49:01.967Z,0.71
2023-05-02T06:50:02.181Z,0.60
2023-05-02T06:51:01.915Z,0.66
2023-05-02T06:52:01.941Z,0.63
2023-05-02T06:53:02.015Z,0.92
2023-05-02T06:54:02.008Z,1.03
2023-05-02T06:55:02.335Z,0.91
2023-05-02T06:56:02.016Z,0.92
2023-05-02T06:57:02.190Z,0.89
2023-05-02T06:58:02.217Z,0.84
2023-05-02T06:59:02.135Z,0.83
2023-05-02T07:00:02.375Z,0.63
2023-05-02T07:01:02.190Z,0.63
2023-05-02T07:02:05.066Z,0.59
2023-05-02T07:03:02.211Z,0.61
2023-05-02T07:04:02.261Z,0.60
2023-05-02T07:05:02.082Z,0.64
2023-05-02T07:06:03.670Z,0.76
2023-05-02T07:07:02.124Z,0.73
2023-05-02T07:08:02.126Z,0.81
2023-05-02T07:09:02.076Z,0.88
2023-05-02T07:10:02.514Z,1.35
2023-05-02T07:11:02.121Z,1.40
2023-05-02T07:12:06.611Z,1.43
2023-05-02T07:13:04.787Z,1.43
2023-05-02T07:14:02.051Z,1.47
2023-05-02T07:15:02.358Z,1.59
2023-05-02T07:16:02.070Z,1.64
2023-05-02T07:17:02.192Z,1.05
2023-05-02T07:18:02.188Z,0.89
2023-05-02T07:19:02.094Z,0.88
2023-05-02T07:20:02.596Z,0.86
2023-05-02T07:21:02.006Z,0.94
2023-05-02T07:22:02.006Z,1.08
2023-05-02T07:23:02.136Z,1.48
2023-05-02T07:24:02.027Z,1.29
2023-05-02T07:25:02.317Z,1.17
2023-05-02T07:26:03.196Z,1.11
2023-05-02T07:27:02.016Z,0.89
2023-05-02T07:28:02.033Z,1.03
2023-05-02T07:29:02.815Z,0.89
2023-05-02T07:30:02.531Z,0.85
2023-05-02T07:31:01.981Z,0.89
2023-05-02T07:32:02.067Z,0.84
2023-05-02T07:33:01.983Z,0.87
2023-05-02T07:34:01.998Z,0.85
2023-05-02T07:35:02.009Z,0.65
2023-05-02T07:36:02.406Z,0.76
2023-05-02T07:37:01.906Z,0.97
2023-05-02T07:38:02.030Z,1.32
2023-05-02T07:39:02.024Z,1.28
2023-05-02T07:40:02.513Z,1.01
2023-05-02T07:41:02.333Z,0.86
2023-05-02T07:42:02.153Z,0.61
2023-05-02T07:43:02.152Z,0.46
2023-05-02T07:44:02.137Z,0.50
2023-05-02T07:45:02.167Z,0.44
2023-05-02T07:46:02.281Z,0.37
2023-05-02T07:47:02.171Z,0.40
2023-05-02T07:48:02.333Z,0.63
2023-05-02T07:49:02.261Z,0.52
2023-05-02T07:50:02.576Z,0.51
2023-05-02T07:51:02.301Z,0.55
2023-05-02T07:52:02.214Z,0.39
2023-05-02T07:53:02.212Z,0.48
2023-05-02T07:54:02.219Z,0.48
2023-05-02T07:55:02.181Z,0.48
2023-05-02T07:56:02.327Z,0.38
2023-05-02T07:57:02.346Z,0.58
2023-05-02T07:58:02.209Z,0.85
2023-05-02T07:59:03.652Z,0.59
2023-05-02T08:00:02.823Z,0.73
2023-05-02T08:01:02.204Z,1.22
2023-05-02T08:02:02.194Z,1.16
2023-05-02T08:03:02.275Z,0.70
2023-05-02T08:04:02.483Z,0.71
2023-05-02T08:05:02.238Z,0.98
2023-05-02T08:06:02.344Z,1.26
2023-05-02T08:07:02.159Z,1.35
2023-05-02T08:08:02.277Z,1.41
2023-05-02T08:09:02.137Z,1.37
2023-05-02T08:10:02.456Z,1.45
2023-05-02T08:11:02.277Z,1.15
2023-05-02T08:12:02.160Z,0.72
2023-05-02T08:13:02.175Z,0.77
2023-05-02T08:14:02.108Z,0.88
2023-05-02T08:15:02.069Z,1.13
2023-05-02T08:16:02.863Z,0.71
2023-05-02T08:17:02.801Z,0.54
2023-05-02T08:18:02.125Z,0.75
2023-05-02T08:19:02.089Z,1.11
2023-05-02T08:20:02.370Z,1.74
2023-05-02T08:21:02.279Z,2.40
2023-05-02T08:22:02.114Z,2.21
2023-05-02T08:23:02.084Z,1.67
2023-05-02T08:24:02.572Z,1.92
2023-05-02T08:25:01.996Z,1.98
2023-05-02T08:26:02.060Z,0.86
2023-05-02T08:27:02.001Z,0.51
2023-05-02T08:28:02.038Z,0.51
2023-05-02T08:29:01.979Z,0.55
2023-05-02T08:30:02.046Z,0.51
2023-05-02T08:31:01.975Z,0.63
2023-05-02T08:32:02.024Z,0.87
2023-05-02T08:33:02.134Z,0.76
2023-05-02T08:34:02.006Z,0.89
2023-05-02T08:35:02.023Z,0.90
2023-05-02T08:36:02.429Z,0.95
2023-05-02T08:37:02.016Z,1.02
2023-05-02T08:38:01.945Z,1.01
2023-05-02T08:39:02.747Z,0.85
2023-05-02T08:40:02.502Z,0.67
2023-05-02T08:41:02.302Z,0.50
2023-05-02T08:42:01.946Z,0.50
2023-05-02T08:43:01.938Z,0.52
2023-05-02T08:44:01.982Z,0.58
2023-05-02T08:45:02.062Z,0.38
2023-05-02T08:46:03.816Z,0.34
2023-05-02T08:47:02.152Z,0.34
2023-05-02T08:48:02.137Z,0.39
2023-05-02T08:49:02.127Z,0.34
2023-05-02T08:50:02.667Z,0.38
2023-05-02T08:51:02.319Z,0.36
2023-05-02T08:52:02.339Z,0.38
2023-05-02T08:53:02.361Z,0.58
2023-05-02T08:54:02.431Z,0.56
2023-05-02T08:55:02.749Z,0.57
2023-05-02T08:56:02.816Z,0.51
2023-05-02T08:57:02.512Z,0.52
2023-05-02T08:58:02.515Z,0.39
2023-05-02T08:59:02.533Z,0.53
2023-05-02T09:00:02.573Z,0.62
2023-05-02T09:01:02.589Z,0.73
2023-05-02T09:02:02.590Z,0.69
2023-05-02T09:03:02.619Z,0.83
2023-05-02T09:04:02.620Z,1.07
2023-05-02T09:05:02.786Z,1.00
2023-05-02T09:06:02.703Z,1.17
2023-05-02T09:07:02.580Z,0.82
2023-05-02T09:08:03.169Z,0.76
2023-05-02T09:09:02.591Z,0.53
2023-05-02T09:10:02.650Z,0.54
2023-05-02T09:11:02.651Z,0.69
2023-05-02T09:12:02.677Z,0.85
2023-05-02T09:13:02.696Z,0.84
2023-05-02T09:14:02.729Z,0.65
2023-05-02T09:15:02.746Z,0.67
2023-05-02T09:16:03.060Z,0.81
2023-05-02T09:17:02.866Z,0.62
2023-05-02T09:18:02.844Z,0.52
2023-05-02T09:19:02.827Z,0.53
2023-05-02T09:20:02.930Z,0.51
2023-05-02T09:21:03.338Z,0.55
2023-05-02T09:22:02.812Z,0.75
2023-05-02T09:23:02.835Z,1.07
2023-05-02T09:24:03.869Z,1.03
2023-05-02T09:25:02.902Z,1.09
2023-05-02T09:26:03.298Z,1.26
2023-05-02T09:27:03.222Z,1.18
2023-05-02T09:28:02.942Z,1.44
2023-05-02T09:29:02.943Z,1.74
2023-05-02T09:30:03.072Z,1.51
2023-05-02T09:31:04.824Z,1.15
2023-05-02T09:32:03.094Z,0.69
2023-05-02T09:33:03.037Z,0.95
2023-05-02T09:34:03.102Z,1.21
2023-05-02T09:35:03.016Z,1.34
2023-05-02T09:36:06.934Z,1.42
2023-05-02T09:37:03.087Z,1.43
2023-05-02T09:38:03.201Z,0.93
2023-05-02T09:39:02.947Z,1.17
2023-05-02T09:40:03.067Z,1.01
2023-05-02T09:41:03.309Z,0.72
2023-05-02T09:42:03.327Z,0.69
2023-05-02T09:43:02.969Z,1.16
2023-05-02T09:44:02.990Z,1.85
2023-05-02T09:45:02.964Z,1.36
2023-05-02T09:46:03.071Z,1.32
2023-05-02T09:47:03.817Z,1.18
2023-05-02T09:48:03.092Z,0.97
2023-05-02T09:49:02.922Z,1.10
2023-05-02T09:50:02.921Z,1.29
2023-05-02T09:51:02.891Z,1.28
2023-05-02T09:52:02.939Z,1.05
2023-05-02T09:53:02.905Z,0.95
2023-05-02T09:54:02.906Z,0.78
2023-05-02T09:55:02.935Z,0.57
2023-05-02T09:56:02.921Z,0.50
2023-05-02T09:57:02.865Z,0.62
2023-05-02T09:58:02.872Z,0.87
2023-05-02T09:59:02.839Z,0.76
2023-05-02T10:00:02.909Z,0.71
2023-05-02T10:01:02.911Z,0.63
2023-05-02T10:02:03.153Z,0.52
2023-05-02T10:03:02.810Z,0.61
2023-05-02T10:04:02.846Z,0.94
2023-05-02T10:05:03.839Z,1.56
2023-05-02T10:06:02.812Z,2.24
2023-05-02T10:07:02.831Z,2.20
2023-05-02T10:08:02.760Z,1.93
2023-05-02T10:09:02.844Z,0.75
2023-05-02T10:10:03.680Z,0.58
2023-05-02T10:11:02.765Z,0.71
2023-05-02T10:12:02.816Z,1.24
2023-05-02T10:13:02.828Z,1.50
2023-05-02T10:14:02.910Z,1.31
2023-05-02T10:15:03.115Z,1.11
2023-05-02T10:16:03.103Z,1.57
2023-05-02T10:17:03.007Z,2.64
2023-05-02T10:18:03.127Z,2.87
2023-05-02T10:19:03.155Z,3.98
2023-05-02T10:20:03.158Z,3.90
2023-05-02T10:21:03.194Z,2.00
2023-05-02T10:22:03.858Z,1.61
2023-05-02T10:23:03.361Z,0.63
2023-05-02T10:24:03.332Z,0.54
2023-05-02T10:25:03.662Z,0.56
2023-05-02T10:26:03.469Z,0.65
2023-05-02T10:27:03.891Z,0.65
2023-05-02T10:28:03.406Z,0.96
2023-05-02T10:29:03.379Z,1.28
2023-05-02T10:30:03.405Z,1.04
2023-05-02T10:31:03.453Z,0.70
2023-05-02T10:32:04.537Z,0.48
2023-05-02T10:33:03.477Z,0.34
2023-05-02T10:34:03.447Z,0.34
2023-05-02T10:35:03.687Z,0.34
2023-05-02T10:36:03.543Z,0.38
2023-05-02T10:37:03.852Z,0.49
2023-05-02T10:38:03.688Z,0.34
2023-05-02T10:39:03.607Z,0.34
2023-05-02T10:40:03.631Z,0.34
2023-05-02T10:41:03.686Z,0.34
2023-05-02T10:42:03.835Z,0.34
2023-05-02T10:43:03.694Z,0.34
2023-05-02T10:44:03.691Z,0.37
2023-05-02T10:45:03.707Z,0.53
2023-05-02T10:46:04.486Z,0.57
2023-05-02T10:47:04.022Z,0.60
2023-05-02T10:48:04.026Z,0.51
2023-05-02T10:49:03.921Z,0.34
2023-05-02T10:50:04.036Z,0.34
2023-05-02T10:51:03.962Z,0.34
2023-05-02T10:52:04.383Z,0.34
2023-05-02T10:53:04.074Z,0.36
2023-05-02T10:54:04.076Z,0.50
2023-05-02T10:55:04.080Z,0.84
2023-05-02T10:56:04.172Z,0.84
2023-05-02T10:57:04.233Z,0.75
2023-05-02T10:58:04.297Z,0.78
2023-05-02T10:59:04.210Z,1.00
2023-05-02T11:00:04.214Z,1.08
2023-05-02T11:01:04.377Z,1.74
2023-05-02T11:02:06.992Z,2.48
2023-05-02T11:03:04.449Z,1.90
2023-05-02T11:04:04.336Z,1.59
2023-05-02T11:05:04.764Z,2.06
2023-05-02T11:06:04.317Z,2.75
2023-05-02T11:07:04.278Z,1.70
2023-05-02T11:08:04.264Z,1.63
2023-05-02T11:09:04.307Z,1.04
2023-05-02T11:10:04.312Z,0.74
2023-05-02T11:11:04.188Z,1.11
2023-05-02T11:12:04.408Z,1.75
2023-05-02T11:13:04.198Z,1.11
2023-05-02T11:14:04.220Z,0.95
2023-05-02T11:15:04.212Z,1.00
2023-05-02T11:16:04.228Z,0.98
2023-05-02T11:17:04.424Z,0.88
2023-05-02T11:18:04.277Z,0.71
2023-05-02T11:19:04.232Z,0.63
2023-05-02T11:20:04.256Z,0.83
2023-05-02T11:21:04.256Z,0.71
2023-05-02T11:22:04.278Z,0.53
2023-05-02T11:23:04.162Z,0.50
2023-05-02T11:24:04.185Z,0.67
2023-05-02T11:25:04.190Z,1.05
2023-05-02T11:26:05.219Z,0.43
2023-05-02T11:27:04.093Z,0.60
2023-05-02T11:28:04.145Z,0.34
2023-05-02T11:29:04.271Z,0.44
2023-05-02T11:30:04.120Z,0.60
2023-05-02T11:31:04.133Z,1.73
2023-05-02T11:32:04.557Z,1.03
2023-05-02T11:33:04.225Z,1.00
2023-05-02T11:34:04.032Z,0.62
2023-05-02T11:35:04.246Z,0.88
2023-05-02T11:36:04.046Z,1.04
2023-05-02T11:37:04.382Z,0.49
2023-05-02T11:38:04.088Z,0.46
2023-05-02T11:39:04.058Z,0.57
2023-05-02T11:40:04.097Z,1.23
2023-05-02T11:41:04.104Z,2.39
2023-05-02T11:42:04.004Z,4.60
2023-05-02T11:43:04.036Z,6.12
2023-05-02T11:44:04.015Z,6.90
2023-05-02T11:45:04.223Z,6.71
2023-05-02T11:46:04.047Z,4.59
2023-05-02T11:47:04.041Z,5.49
2023-05-02T11:48:04.098Z,7.04
2023-05-02T11:49:05.097Z,3.88
2023-05-02T11:50:04.070Z,4.79
2023-05-02T11:51:04.091Z,5.11
2023-05-02T11:52:04.180Z,5.67
2023-05-02T11:53:04.061Z,4.66
2023-05-02T11:54:04.150Z,3.23
2023-05-02T11:55:04.443Z,2.17
2023-05-02T11:56:04.170Z,2.75
2023-05-02T11:57:04.205Z,2.13
2023-05-02T11:58:04.215Z,3.22
2023-05-02T11:59:04.229Z,3.70
2023-05-02T12:00:04.317Z,2.98
2023-05-02T12:01:04.244Z,3.74
2023-05-02T12:02:04.404Z,5.33
2023-05-02T12:03:04.323Z,3.32
2023-05-02T12:04:04.345Z,2.19
2023-05-02T12:05:04.684Z,2.20
2023-05-02T12:06:04.555Z,2.66
2023-05-02T12:07:04.556Z,3.96
2023-05-02T12:08:04.385Z,2.37
2023-05-02T12:09:04.411Z,5.40
2023-05-02T12:10:04.446Z,6.96
2023-05-02T12:11:04.472Z,11.74
2023-05-02T12:12:04.429Z,16.18
2023-05-02T12:13:04.508Z,11.61
2023-05-02T12:14:04.525Z,14.79
2023-05-02T12:15:04.618Z,21.90
2023-05-02T12:16:04.645Z,16.73
2023-05-02T12:17:04.674Z,14.34
2023-05-02T12:18:04.727Z,15.99
2023-05-02T12:19:04.740Z,17.03
2023-05-02T12:20:04.785Z,15.50
2023-05-02T12:21:04.797Z,16.96
2023-05-02T12:22:04.812Z,22.88
2023-05-02T12:23:04.882Z,27.82
2023-05-02T12:24:04.886Z,26.02
2023-05-02T12:25:05.201Z,26.37
2023-05-02T12:26:04.918Z,18.81
2023-05-02T12:27:04.996Z,17.65
2023-05-02T12:28:05.016Z,17.50
2023-05-02T12:29:05.060Z,21.19
2023-05-02T12:30:05.339Z,23.36
2023-05-02T12:31:05.164Z,23.24
2023-05-02T12:32:05.130Z,25.19
2023-05-02T12:33:05.122Z,20.71
2023-05-02T12:34:05.155Z,19.00
2023-05-02T12:35:05.160Z,18.97
2023-05-02T12:36:05.224Z,23.98
2023-05-02T12:37:05.279Z,24.16
2023-05-02T12:38:05.280Z,30.47
2023-05-02T12:39:05.340Z,25.27
2023-05-02T12:40:05.373Z,39.03
2023-05-02T12:41:05.395Z,26.44
2023-05-02T12:42:05.444Z,13.87
2023-05-02T12:43:05.520Z,12.45
2023-05-02T12:44:05.573Z,16.49
2023-05-02T12:45:05.636Z,14.47
2023-05-02T12:46:05.631Z,16.11
2023-05-02T12:47:06.293Z,20.91
2023-05-02T12:48:05.752Z,7.08
2023-05-02T12:49:05.942Z,3.42
2023-05-02T12:50:05.806Z,2.24
2023-05-02T12:51:05.828Z,1.82
2023-05-02T12:52:05.831Z,1.33
2023-05-02T12:53:05.899Z,0.79
2023-05-02T12:54:05.962Z,0.53
2023-05-02T12:55:05.958Z,0.70
2023-05-02T12:56:06.012Z,1.30
2023-05-02T12:57:06.041Z,1.35
2023-05-02T12:58:06.048Z,1.74
2023-05-02T12:59:06.048Z,1.33
2023-05-02T13:00:06.039Z,2.03
2023-05-02T13:01:06.106Z,3.40
2023-05-02T13:02:06.155Z,2.56
2023-05-02T13:03:06.318Z,1.94
2023-05-02T13:04:06.260Z,1.24
2023-05-02T13:05:06.276Z,1.16
2023-05-02T13:06:06.304Z,1.61
2023-05-02T13:07:06.279Z,2.57
2023-05-02T13:08:06.358Z,2.18
2023-05-02T13:09:06.370Z,1.89
2023-05-02T13:10:06.364Z,1.80